createdAt,value
2019-02-14T00:00:06.116Z,38.60
2019-02-14T00:02:37.553Z,38.60
2019-02-14T00:05:16.213Z,38.70
2019-02-14T00:07:42.096Z,38.70
2019-02-14T00:10:13.847Z,38.70
2019-02-14T00:12:45.096Z,39.10
2019-02-14T00:15:16.658Z,38.60
2019-02-14T00:17:48.144Z,38.70
2019-02-14T00:20:19.816Z,38.70
2019-02-14T00:22:51.306Z,38.60
2019-02-14T00:25:22.887Z,38.60
2019-02-14T00:27:54.544Z,38.60
2019-02-14T00:30:26.075Z,38.50
2019-02-14T00:32:57.680Z,38.50
2019-02-14T00:35:29.162Z,38.50
2019-02-14T00:38:00.594Z,38.50
2019-02-14T00:40:32.070Z,38.50
2019-02-14T00:43:03.682Z,38.50
2019-02-14T00:45:34.975Z,38.50
2019-02-14T00:48:06.595Z,38.40
2019-02-14T00:50:38.031Z,38.90
2019-02-14T00:53:09.481Z,38.50
2019-02-14T00:55:42.343Z,38.40
2019-02-14T00:58:13.677Z,38.40
2019-02-14T01:00:44.908Z,38.40
2019-02-14T01:03:16.318Z,38.30
2019-02-14T01:05:47.774Z,38.40
2019-02-14T01:08:19.105Z,38.30
2019-02-14T01:10:50.504Z,38.40
2019-02-14T01:13:21.899Z,38.40
2019-02-14T01:15:53.178Z,38.50
2019-02-14T01:18:24.678Z,38.30
2019-02-14T01:20:56.089Z,38.50
2019-02-14T01:23:27.643Z,38.40
2019-02-14T01:25:58.990Z,38.40
2019-02-14T01:28:30.650Z,38.30
2019-02-14T01:31:02.265Z,38.30
2019-02-14T01:33:33.749Z,38.30
2019-02-14T01:36:05.036Z,38.30
2019-02-14T01:38:36.529Z,38.30
2019-02-14T01:41:08.164Z,38.30
2019-02-14T01:43:39.410Z,38.30
2019-02-14T01:46:10.790Z,38.20
2019-02-14T01:48:42.013Z,38.10
2019-02-14T01:51:13.293Z,38.20
2019-02-14T01:53:44.670Z,38.30
2019-02-14T01:56:16.343Z,38.40
2019-02-14T01:58:47.827Z,38.30
2019-02-14T02:01:19.167Z,38.30
2019-02-14T02:03:50.507Z,38.30
2019-02-14T02:06:22.025Z,38.20
2019-02-14T02:08:53.442Z,38.20
2019-02-14T02:11:24.823Z,38.20
2019-02-14T02:13:56.381Z,38.30
2019-02-14T02:16:27.771Z,38.30
2019-02-14T02:18:59.298Z,38.20
2019-02-14T02:21:30.632Z,38.20
2019-02-14T02:24:02.002Z,37.60
2019-02-14T02:26:33.430Z,38.20
2019-02-14T02:29:04.802Z,38.20
2019-02-14T02:31:36.427Z,38.20
2019-02-14T02:34:07.901Z,38.20
2019-02-14T02:36:39.249Z,38.20
2019-02-14T02:39:10.522Z,38.10
2019-02-14T02:41:41.776Z,38.20
2019-02-14T02:44:13.511Z,38.20
2019-02-14T02:46:44.699Z,38.10
2019-02-14T02:49:16.213Z,38.20
2019-02-14T02:51:47.529Z,38.20
2019-02-14T02:54:18.983Z,38.10
2019-02-14T02:56:50.348Z,38.10
2019-02-14T02:59:21.902Z,38.20
2019-02-14T03:01:53.268Z,38.10
2019-02-14T03:04:24.843Z,38.00
2019-02-14T03:06:56.065Z,38.10
2019-02-14T03:09:27.504Z,38.10
2019-02-14T03:11:58.932Z,38.00
2019-02-14T03:14:30.644Z,38.00
2019-02-14T03:17:02.117Z,38.00
2019-02-14T03:19:33.376Z,38.00
2019-02-14T03:22:05.232Z,38.00
2019-02-14T03:24:36.803Z,38.00
2019-02-14T03:27:08.378Z,38.00
2019-02-14T03:29:39.939Z,37.90
2019-02-14T03:32:11.825Z,37.90
2019-02-14T03:34:43.423Z,38.00
2019-02-14T03:37:14.819Z,37.90
2019-02-14T03:39:46.114Z,38.00
2019-02-14T03:42:17.416Z,37.80
2019-02-14T03:44:48.850Z,37.90
2019-02-14T03:47:20.368Z,37.90
2019-02-14T03:49:51.838Z,37.90
2019-02-14T03:52:23.480Z,37.80
2019-02-14T03:54:54.744Z,37.90
2019-02-14T03:57:26.180Z,37.80
2019-02-14T03:59:57.458Z,37.90
2019-02-14T04:02:29.105Z,37.90
2019-02-14T04:05:00.711Z,37.90
2019-02-14T04:07:31.960Z,37.90
2019-02-14T04:10:03.374Z,37.80
2019-02-14T04:12:35.289Z,37.80
2019-02-14T04:15:07.630Z,37.70
2019-02-14T04:17:39.239Z,37.80
2019-02-14T04:20:10.557Z,37.80
2019-02-14T04:22:42.389Z,37.90
2019-02-14T04:25:13.684Z,37.90
2019-02-14T04:27:45.234Z,37.90
2019-02-14T04:30:16.966Z,38.00
2019-02-14T04:32:48.368Z,37.90
2019-02-14T04:35:19.828Z,37.90
2019-02-14T04:37:51.138Z,37.90
2019-02-14T04:40:23.058Z,37.80
2019-02-14T04:42:54.428Z,37.80
2019-02-14T04:45:25.913Z,37.70
2019-02-14T04:47:57.238Z,37.80
2019-02-14T04:50:28.689Z,37.70
2019-02-14T04:53:00.120Z,37.80
2019-02-14T04:55:32.469Z,37.80
2019-02-14T04:58:03.612Z,37.80
2019-02-14T05:00:35.186Z,37.80
2019-02-14T05:03:06.918Z,37.80
2019-02-14T05:05:38.626Z,37.70
2019-02-14T05:08:10.060Z,37.60
2019-02-14T05:10:41.644Z,37.70
2019-02-14T05:13:13.253Z,37.70
2019-02-14T05:15:44.852Z,37.80
2019-02-14T05:18:16.454Z,37.80
2019-02-14T05:20:47.752Z,37.70
2019-02-14T05:23:19.511Z,37.80
2019-02-14T05:25:51.528Z,37.70
2019-02-14T05:28:23.060Z,37.70
2019-02-14T05:30:54.986Z,37.70
2019-02-14T05:33:26.439Z,37.60
2019-02-14T05:35:57.818Z,37.70
2019-02-14T05:38:29.397Z,38.10
2019-02-14T05:41:01.105Z,37.70
2019-02-14T05:43:32.768Z,37.60
2019-02-14T05:46:04.636Z,37.70
2019-02-14T05:48:36.103Z,37.00
2019-02-14T05:51:08.187Z,34.20
2019-02-14T05:53:40.562Z,33.00
2019-02-14T05:56:12.186Z,32.70
2019-02-14T05:58:44.218Z,32.70
2019-02-14T06:01:18.670Z,33.00
2019-02-14T06:03:50.723Z,33.20
2019-02-14T06:06:22.495Z,33.60
2019-02-14T06:08:53.972Z,34.90
2019-02-14T06:11:25.358Z,37.80
2019-02-14T06:13:56.968Z,38.90
2019-02-14T06:16:28.586Z,39.60
2019-02-14T06:19:00.184Z,40.00
2019-02-14T06:21:32.325Z,40.20
2019-02-14T06:24:03.782Z,40.20
2019-02-14T06:26:36.030Z,40.30
2019-02-14T06:29:07.540Z,40.30
2019-02-14T06:31:38.881Z,40.40
2019-02-14T06:34:10.687Z,40.50
2019-02-14T06:36:42.566Z,40.70
2019-02-14T06:39:13.886Z,40.90
2019-02-14T06:41:45.698Z,41.00
2019-02-14T06:44:17.248Z,41.10
2019-02-14T06:46:49.381Z,41.10
2019-02-14T06:49:20.874Z,41.20
2019-02-14T06:51:52.828Z,41.40
2019-02-14T06:54:24.795Z,41.50
2019-02-14T06:56:56.768Z,41.70
2019-02-14T06:59:28.717Z,41.80
2019-02-14T07:02:00.693Z,42.10
2019-02-14T07:04:32.291Z,42.30
2019-02-14T07:07:03.754Z,42.40
2019-02-14T07:09:35.478Z,42.50
2019-02-14T07:12:07.040Z,42.50
2019-02-14T07:14:38.921Z,42.50
2019-02-14T07:17:10.670Z,42.70
2019-02-14T07:19:42.275Z,42.80
2019-02-14T07:22:13.818Z,42.40
2019-02-14T07:24:45.681Z,42.80
2019-02-14T07:27:17.235Z,42.90
2019-02-14T07:29:48.835Z,42.90
2019-02-14T07:32:20.828Z,42.90
2019-02-14T07:34:52.504Z,42.90
2019-02-14T07:37:26.781Z,42.90
2019-02-14T07:39:57.990Z,42.60
2019-02-14T07:42:29.731Z,42.30
2019-02-14T07:45:01.324Z,42.30
2019-02-14T07:47:33.063Z,42.20
2019-02-14T07:50:05.067Z,42.00
2019-02-14T07:52:36.878Z,41.90
2019-02-14T07:55:09.362Z,42.00
2019-02-14T07:57:41.356Z,41.60
2019-02-14T08:00:14.032Z,41.50
2019-02-14T08:02:46.172Z,41.40
2019-02-14T08:05:18.225Z,41.20
2019-02-14T08:07:49.922Z,41.00
2019-02-14T08:10:21.461Z,40.90
2019-02-14T08:12:53.642Z,40.80
2019-02-14T08:15:25.238Z,41.00
2019-02-14T08:17:56.966Z,40.70
2019-02-14T08:20:29.225Z,40.60
2019-02-14T08:23:00.582Z,40.50
2019-02-14T08:25:32.094Z,40.40
2019-02-14T08:28:03.920Z,40.20
2019-02-14T08:30:35.838Z,40.10
2019-02-14T08:33:07.157Z,40.00
2019-02-14T08:35:38.980Z,39.90
2019-02-14T08:38:11.012Z,39.80
2019-02-14T08:40:43.248Z,39.80
2019-02-14T08:43:15.314Z,39.40
2019-02-14T08:45:47.215Z,39.60
2019-02-14T08:48:19.587Z,39.50
2019-02-14T08:50:51.396Z,39.50
2019-02-14T08:53:23.164Z,39.40
2019-02-14T08:55:54.940Z,39.30
2019-02-14T08:58:26.756Z,39.30
2019-02-14T09:00:58.406Z,39.10
2019-02-14T09:03:30.166Z,39.10
2019-02-14T09:06:01.987Z,39.00
2019-02-14T09:08:33.815Z,39.60
2019-02-14T09:11:05.338Z,39.00
2019-02-14T09:13:36.968Z,38.90
2019-02-14T09:16:08.862Z,38.90
2019-02-14T09:18:40.512Z,38.90
2019-02-14T09:21:12.170Z,38.80
2019-02-14T09:23:44.233Z,38.80
2019-02-14T09:26:16.568Z,38.80
2019-02-14T09:28:48.343Z,38.90
2019-02-14T09:31:19.751Z,39.00
2019-02-14T09:33:51.401Z,39.00
2019-02-14T09:36:23.187Z,38.90
2019-02-14T09:38:55.259Z,39.00
2019-02-14T09:41:26.900Z,39.00
2019-02-14T09:43:58.649Z,39.60
2019-02-14T09:46:30.264Z,38.90
2019-02-14T09:49:02.283Z,38.90
2019-02-14T09:51:34.360Z,39.10
2019-02-14T09:54:06.104Z,39.10
2019-02-14T09:56:38.657Z,39.10
2019-02-14T09:59:10.517Z,39.10
2019-02-14T10:01:44.808Z,39.20
2019-02-14T10:04:16.505Z,39.20
2019-02-14T10:06:49.206Z,39.20
2019-02-14T10:09:20.631Z,39.50
2019-02-14T10:11:52.572Z,39.10
2019-02-14T10:14:24.489Z,39.20
2019-02-14T10:16:56.419Z,39.40
2019-02-14T10:19:28.874Z,40.10
2019-02-14T10:22:00.970Z,41.10
2019-02-14T10:24:33.086Z,41.00
2019-02-14T10:27:05.348Z,41.40
2019-02-14T10:29:37.510Z,41.60
2019-02-14T10:32:09.697Z,41.90
2019-02-14T10:34:41.005Z,42.10
2019-02-14T10:37:12.600Z,42.30
2019-02-14T10:39:44.640Z,42.60
2019-02-14T10:42:16.242Z,42.80
2019-02-14T10:44:48.727Z,43.10
2019-02-14T10:47:20.729Z,43.20
2019-02-14T10:49:52.563Z,44.00
2019-02-14T10:52:24.619Z,43.50
2019-02-14T10:54:56.430Z,43.70
2019-02-14T10:57:28.790Z,43.90
2019-02-14T11:00:01.276Z,44.00
2019-02-14T11:02:33.312Z,44.10
2019-02-14T11:05:05.243Z,44.30
2019-02-14T11:07:37.313Z,44.40
2019-02-14T11:10:09.621Z,44.50
2019-02-14T11:12:41.450Z,44.00
2019-02-14T11:15:14.028Z,44.60
2019-02-14T11:17:46.350Z,44.70
2019-02-14T11:20:18.406Z,44.80
2019-02-14T11:22:50.064Z,44.90
2019-02-14T11:25:27.274Z,44.90
2019-02-14T11:27:59.055Z,45.00
2019-02-14T11:30:31.101Z,45.20
2019-02-14T11:33:03.329Z,45.30
2019-02-14T11:35:35.426Z,45.90
2019-02-14T11:38:07.706Z,45.40
2019-02-14T11:40:39.577Z,45.40
2019-02-14T11:43:11.374Z,45.00
2019-02-14T11:45:43.364Z,44.40
2019-02-14T11:48:15.102Z,44.20
2019-02-14T11:50:47.493Z,44.00
2019-02-14T11:53:19.514Z,43.80
2019-02-14T11:55:51.833Z,43.30
2019-02-14T11:58:24.050Z,43.10
2019-02-14T12:00:55.897Z,42.90
2019-02-14T12:03:27.485Z,43.30
2019-02-14T12:05:59.435Z,42.50
2019-02-14T12:08:31.223Z,42.20
2019-02-14T12:11:03.360Z,42.00
2019-02-14T12:13:35.074Z,42.00
2019-02-14T12:16:06.920Z,41.90
2019-02-14T12:18:38.765Z,41.70
2019-02-14T12:21:11.021Z,41.60
2019-02-14T12:23:42.852Z,41.50
2019-02-14T12:26:14.637Z,41.40
2019-02-14T12:28:47.670Z,41.20
2019-02-14T12:31:19.611Z,41.10
2019-02-14T12:33:51.237Z,41.20
2019-02-14T12:36:23.009Z,41.00
2019-02-14T12:38:55.199Z,41.40
2019-02-14T12:41:27.121Z,41.00
2019-02-14T12:43:58.568Z,40.90
2019-02-14T12:46:30.815Z,40.90
2019-02-14T12:49:02.412Z,40.70
2019-02-14T12:51:34.296Z,40.80
2019-02-14T12:54:06.858Z,40.80
2019-02-14T12:56:38.712Z,40.80
2019-02-14T12:59:10.947Z,40.70
2019-02-14T13:01:43.038Z,40.70
2019-02-14T13:04:14.739Z,40.70
2019-02-14T13:06:46.493Z,40.60
2019-02-14T13:09:20.132Z,40.60
2019-02-14T13:11:52.112Z,40.50
2019-02-14T13:14:23.927Z,40.40
2019-02-14T13:16:55.786Z,40.40
2019-02-14T13:19:27.635Z,40.30
2019-02-14T13:21:59.582Z,40.30
2019-02-14T13:24:32.192Z,40.30
2019-02-14T13:27:04.006Z,40.20
2019-02-14T13:29:35.750Z,40.20
2019-02-14T13:32:07.271Z,40.20
2019-02-14T13:34:39.488Z,40.20
2019-02-14T13:37:11.239Z,40.10
2019-02-14T13:39:43.269Z,40.10
2019-02-14T13:42:14.935Z,40.00
2019-02-14T13:44:46.792Z,40.00
2019-02-14T13:47:18.258Z,40.00
2019-02-14T13:49:50.226Z,40.00
2019-02-14T13:52:22.186Z,39.90
2019-02-14T13:54:53.992Z,39.90
2019-02-14T13:57:26.512Z,39.90
2019-02-14T13:59:58.748Z,39.80
2019-02-14T14:02:31.016Z,39.80
2019-02-14T14:05:02.710Z,39.90
2019-02-14T14:07:40.454Z,39.70
2019-02-14T14:10:08.394Z,39.70
2019-02-14T14:12:40.017Z,39.80
2019-02-14T14:15:13.260Z,39.70
2019-02-14T14:17:45.377Z,39.90
2019-02-14T14:20:17.328Z,40.50
2019-02-14T14:22:49.254Z,41.00
2019-02-14T14:25:20.976Z,42.00
2019-02-14T14:27:53.657Z,41.70
2019-02-14T14:30:25.142Z,42.10
2019-02-14T14:32:56.952Z,42.40
2019-02-14T14:35:29.440Z,42.70
2019-02-14T14:38:01.265Z,42.80
2019-02-14T14:40:33.262Z,43.20
2019-02-14T14:43:32.056Z,43.30
2019-02-14T14:46:14.848Z,43.50
2019-02-14T14:48:46.848Z,43.60
2019-02-14T14:51:18.896Z,43.80
2019-02-14T14:53:50.742Z,44.00
2019-02-14T14:56:23.024Z,44.10
2019-02-14T14:58:54.321Z,44.30
2019-02-14T15:01:25.810Z,45.00
2019-02-14T15:03:57.115Z,44.50
2019-02-14T15:06:30.042Z,44.60
2019-02-14T15:09:01.946Z,44.70
2019-02-14T15:11:33.526Z,44.80
2019-02-14T15:14:05.702Z,44.80
2019-02-14T15:16:37.791Z,44.90
2019-02-14T15:19:10.055Z,44.90
2019-02-14T15:21:41.940Z,45.00
2019-02-14T15:24:13.862Z,45.10
2019-02-14T15:26:45.698Z,45.10
2019-02-14T15:29:17.401Z,45.20
2019-02-14T15:31:49.014Z,45.60
2019-02-14T15:34:21.094Z,44.70
2019-02-14T15:36:52.825Z,44.50
2019-02-14T15:39:24.656Z,44.10
2019-02-14T15:41:56.315Z,43.80
2019-02-14T15:44:28.067Z,43.50
2019-02-14T15:46:59.879Z,43.20
2019-02-14T15:49:31.632Z,42.90
2019-02-14T15:52:05.375Z,42.90
2019-02-14T15:54:36.660Z,42.80
2019-02-14T15:57:08.760Z,42.70
2019-02-14T15:59:42.431Z,42.60
2019-02-14T16:02:13.530Z,42.40
2019-02-14T16:04:46.068Z,42.30
2019-02-14T16:07:17.900Z,42.10
2019-02-14T16:09:49.556Z,41.90
2019-02-14T16:12:23.232Z,41.80
2019-02-14T16:14:55.380Z,41.70
2019-02-14T16:17:27.706Z,41.60
2019-02-14T16:19:59.778Z,41.40
2019-02-14T16:22:31.828Z,41.50
2019-02-14T16:25:04.706Z,41.40
2019-02-14T16:27:37.817Z,41.40
